createdAt,value
2022-10-31T00:00:49.720Z,96931.16
2022-10-31T00:03:17.648Z,96931.75
2022-10-31T00:05:46.389Z,96945.38
2022-10-31T00:08:12.970Z,96907.91
2022-10-31T00:10:40.308Z,96961.72
2022-10-31T00:13:07.738Z,96913.94
2022-10-31T00:15:36.574Z,96923.50
2022-10-31T00:18:04.112Z,96923.94
2022-10-31T00:20:30.949Z,96925.25
2022-10-31T00:23:01.804Z,96946.41
2022-10-31T00:25:29.981Z,96921.97
2022-10-31T00:27:56.745Z,96912.78
2022-10-31T00:30:23.638Z,96918.63
2022-10-31T00:32:50.230Z,96916.25
2022-10-31T00:35:17.896Z,96932.63
2022-10-31T00:37:45.326Z,96929.69
2022-10-31T00:40:12.581Z,96928.94
2022-10-31T00:42:40.762Z,96912.56
2022-10-31T00:45:07.777Z,96886.09
2022-10-31T00:47:34.317Z,96900.75
2022-10-31T00:50:00.889Z,96900.50
2022-10-31T00:52:27.588Z,96885.63
2022-10-31T00:54:54.170Z,96915.47
2022-10-31T00:57:20.717Z,96925.16
2022-10-31T00:59:47.357Z,96943.50
2022-10-31T01:02:14.280Z,96934.41
2022-10-31T01:04:40.949Z,96921.81
2022-10-31T01:07:07.996Z,96918.88
2022-10-31T01:09:34.697Z,96924.41
2022-10-31T01:12:01.296Z,96933.47
2022-10-31T01:14:27.845Z,96928.47
2022-10-31T01:16:57.575Z,96927.97
2022-10-31T01:19:24.120Z,96924.34
2022-10-31T01:21:50.662Z,96910.50
2022-10-31T01:24:17.221Z,96922.13
2022-10-31T01:26:43.771Z,96934.34
2022-10-31T01:29:10.406Z,96936.03
2022-10-31T01:31:39.597Z,96941.56
2022-10-31T01:34:07.700Z,96925.13
2022-10-31T01:36:38.330Z,96932.06
2022-10-31T01:39:08.131Z,96920.59
2022-10-31T01:41:37.574Z,96926.78
2022-10-31T01:44:24.304Z,96928.78
2022-10-31T01:46:59.340Z,96924.91
2022-10-31T01:49:33.004Z,96934.81
2022-10-31T01:52:05.945Z,96908.88
2022-10-31T01:54:36.485Z,96909.63
2022-10-31T01:57:06.939Z,96903.66
2022-10-31T01:59:38.732Z,96893.50
2022-10-31T02:02:05.795Z,96893.16
2022-10-31T02:04:32.837Z,96904.84
2022-10-31T02:07:06.379Z,96904.34
2022-10-31T02:09:34.153Z,96920.47
2022-10-31T02:12:03.216Z,96888.22
2022-10-31T02:14:32.112Z,96897.03
2022-10-31T02:16:59.104Z,96880.50
2022-10-31T02:19:37.089Z,96883.09
2022-10-31T02:22:18.891Z,96871.72
2022-10-31T02:24:57.641Z,96882.22
2022-10-31T02:27:44.695Z,96864.66
2022-10-31T02:30:17.359Z,96888.84
2022-10-31T02:32:59.498Z,96869.34
2022-10-31T02:35:28.990Z,96867.47
2022-10-31T02:38:14.201Z,96875.75
2022-10-31T02:40:55.661Z,96881.59
2022-10-31T02:43:42.077Z,96879.09
2022-10-31T02:46:14.318Z,96883.09
2022-10-31T02:48:44.056Z,96874.41
2022-10-31T02:51:12.250Z,96876.28
2022-10-31T02:53:39.253Z,96851.19
2022-10-31T02:56:13.651Z,96851.50
2022-10-31T02:58:56.653Z,96859.75
2022-10-31T03:01:28.374Z,96852.06
2022-10-31T03:04:20.130Z,96877.00
2022-10-31T03:07:16.237Z,96886.16
2022-10-31T03:10:09.696Z,96884.41
2022-10-31T03:12:50.891Z,96910.66
2022-10-31T03:15:40.340Z,96900.25
2022-10-31T03:18:15.153Z,96895.66
2022-10-31T03:20:53.251Z,96889.66
2022-10-31T03:23:20.986Z,96866.03
2022-10-31T03:25:53.890Z,96887.00
2022-10-31T03:28:31.161Z,96877.91
2022-10-31T03:31:00.402Z,96866.25
2022-10-31T03:33:32.786Z,96867.16
2022-10-31T03:36:03.442Z,96881.31
2022-10-31T03:38:30.756Z,96842.75
2022-10-31T03:41:02.431Z,96863.06
2022-10-31T03:43:38.059Z,96864.81
2022-10-31T03:46:05.767Z,96849.66
2022-10-31T03:48:32.989Z,96828.56
2022-10-31T03:51:13.326Z,96848.28
2022-10-31T03:53:45.958Z,96838.19
2022-10-31T03:56:46.000Z,96862.91
2022-10-31T03:59:36.624Z,96888.13
2022-10-31T04:02:17.289Z,96869.00
2022-10-31T04:04:46.405Z,96851.56
2022-10-31T04:07:14.527Z,96853.31
2022-10-31T04:09:45.065Z,96851.28
2022-10-31T04:12:16.148Z,96865.78
2022-10-31T04:15:02.652Z,96855.63
2022-10-31T04:17:32.983Z,96844.03
2022-10-31T04:20:01.516Z,96836.22
2022-10-31T04:22:29.114Z,96842.75
2022-10-31T04:24:55.719Z,96849.34
2022-10-31T04:27:22.324Z,96845.69
2022-10-31T04:29:50.877Z,96850.75
2022-10-31T04:32:18.663Z,96853.97
2022-10-31T04:34:45.248Z,96868.19
2022-10-31T04:37:12.161Z,96845.97
2022-10-31T04:39:39.233Z,96814.41
2022-10-31T04:42:24.153Z,96844.13
2022-10-31T04:44:50.753Z,96836.13
2022-10-31T04:47:17.330Z,96840.41
2022-10-31T04:49:44.162Z,96844.16
2022-10-31T04:52:12.847Z,96832.00
2022-10-31T04:54:40.290Z,96848.81
2022-10-31T04:57:46.558Z,96894.50
2022-10-31T05:00:15.497Z,96911.41
2022-10-31T05:02:45.944Z,96902.16
2022-10-31T05:05:14.148Z,96895.13
2022-10-31T05:07:42.592Z,96895.06
2022-10-31T05:10:11.773Z,96892.94
2022-10-31T05:12:39.294Z,96888.47
2022-10-31T05:15:06.745Z,96875.50
2022-10-31T05:17:53.209Z,96888.84
2022-10-31T05:20:38.560Z,96876.88
2022-10-31T05:23:24.827Z,96867.28
2022-10-31T05:25:51.719Z,96874.75
2022-10-31T05:28:18.536Z,96852.13
2022-10-31T05:30:45.160Z,96861.50
2022-10-31T05:33:15.038Z,96853.59
2022-10-31T05:35:59.992Z,96830.81
2022-10-31T05:38:26.576Z,96830.59
2022-10-31T05:40:58.695Z,96901.69
2022-10-31T05:43:25.669Z,96895.44
2022-10-31T05:45:56.943Z,96873.44
2022-10-31T05:48:41.882Z,96903.59
2022-10-31T05:51:28.697Z,96865.75
2022-10-31T05:53:55.887Z,96863.78
2022-10-31T05:56:22.898Z,96879.34
2022-10-31T05:58:49.833Z,96862.69
2022-10-31T06:01:16.472Z,96862.41
2022-10-31T06:03:45.296Z,96846.97
2022-10-31T06:06:15.756Z,96871.22
2022-10-31T06:08:42.397Z,96892.00
2022-10-31T06:11:19.263Z,96899.97
2022-10-31T06:14:04.809Z,96847.91
2022-10-31T06:16:51.675Z,96874.34
2022-10-31T06:19:37.298Z,96865.38
2022-10-31T06:22:04.732Z,96898.00
2022-10-31T06:24:32.824Z,96875.50
2022-10-31T06:27:03.955Z,96943.88
2022-10-31T06:29:31.281Z,96873.75
2022-10-31T06:32:18.321Z,96872.97
2022-10-31T06:34:49.086Z,96915.81
2022-10-31T06:37:16.745Z,96927.59
2022-10-31T06:39:46.320Z,96987.78
2022-10-31T06:42:16.925Z,96975.41
2022-10-31T06:44:44.085Z,97006.91
2022-10-31T06:48:15.452Z,97073.63
2022-10-31T06:50:45.386Z,96953.47
2022-10-31T06:53:15.334Z,96945.69
2022-10-31T06:55:42.819Z,97012.16
2022-10-31T06:58:11.228Z,96995.38
2022-10-31T07:00:41.196Z,97023.94
2022-10-31T07:03:11.931Z,97019.59
2022-10-31T07:05:38.632Z,97029.06
2022-10-31T07:08:08.178Z,97038.69
2022-10-31T07:10:40.199Z,97025.34
2022-10-31T07:13:13.232Z,97012.06
2022-10-31T07:15:41.744Z,97025.34
2022-10-31T07:18:10.494Z,96980.69
2022-10-31T07:20:37.303Z,96947.25
2022-10-31T07:23:04.855Z,96971.28
2022-10-31T07:25:32.700Z,96954.41
2022-10-31T07:28:05.506Z,96976.06
2022-10-31T07:30:32.984Z,97023.59
2022-10-31T07:33:00.151Z,97020.38
2022-10-31T07:35:46.935Z,97031.13
2022-10-31T07:38:15.973Z,97045.69
2022-10-31T07:40:44.481Z,96965.44
2022-10-31T07:43:14.654Z,96964.28
2022-10-31T07:45:59.906Z,96914.13
2022-10-31T07:48:46.452Z,96902.06
2022-10-31T07:51:33.303Z,96898.16
2022-10-31T07:54:18.501Z,96935.28
2022-10-31T07:56:45.080Z,96991.25
2022-10-31T07:59:11.872Z,96976.31
2022-10-31T08:01:38.414Z,96959.47
2022-10-31T08:04:23.444Z,96956.91
2022-10-31T08:07:08.688Z,96993.13
2022-10-31T08:09:37.631Z,97059.72
2022-10-31T08:12:14.251Z,96967.44
2022-10-31T08:14:41.147Z,96961.78
2022-10-31T08:17:07.700Z,96953.00
2022-10-31T08:19:42.888Z,96923.91
2022-10-31T08:22:12.667Z,96931.09
2022-10-31T08:27:25.878Z,96977.53
2022-10-31T08:29:54.050Z,96986.56
2022-10-31T08:32:23.002Z,96942.38
2022-10-31T08:35:08.629Z,96939.84
2022-10-31T08:37:40.952Z,96927.91
2022-10-31T08:40:08.891Z,96907.28
2022-10-31T08:42:35.683Z,96901.94
2022-10-31T08:45:02.557Z,96893.06
2022-10-31T08:47:30.863Z,96875.78
2022-10-31T08:49:57.493Z,96872.56
2022-10-31T08:52:51.024Z,96879.78
2022-10-31T08:55:12.872Z,96895.91
2022-10-31T08:58:07.306Z,96884.44
2022-10-31T09:00:43.865Z,96963.41
2022-10-31T09:03:17.689Z,96876.22
2022-10-31T09:05:45.022Z,96902.78
2022-10-31T09:08:16.388Z,96886.22
2022-10-31T09:10:45.889Z,96897.97
2022-10-31T09:13:21.386Z,96896.19
2022-10-31T09:16:12.965Z,96918.91
2022-10-31T09:18:39.600Z,96916.25
2022-10-31T09:21:06.168Z,96939.84
2022-10-31T09:23:33.074Z,96928.47
2022-10-31T09:26:02.328Z,96894.34
2022-10-31T09:28:35.368Z,96891.91
2022-10-31T09:31:09.044Z,96897.53
2022-10-31T09:33:47.664Z,96901.25
2022-10-31T09:36:33.110Z,96920.53
2022-10-31T09:38:59.857Z,96954.50
2022-10-31T09:41:42.034Z,96965.44
2022-10-31T09:45:07.600Z,97017.22
2022-10-31T09:47:49.311Z,97024.56
2022-10-31T09:51:00.003Z,97011.66
2022-10-31T09:53:50.496Z,97021.47
2022-10-31T09:56:22.850Z,97039.03
2022-10-31T09:58:56.650Z,97048.91
2022-10-31T10:01:56.602Z,97053.97
2022-10-31T10:04:32.455Z,97051.63
2022-10-31T10:07:24.210Z,97034.91
2022-10-31T10:10:29.585Z,97065.28
2022-10-31T10:13:27.397Z,97071.41
2022-10-31T10:16:02.935Z,97074.16
2022-10-31T10:18:44.157Z,97110.44
2022-10-31T10:21:27.840Z,97079.25
2022-10-31T10:24:15.506Z,97114.34
2022-10-31T10:26:47.227Z,97099.41
2022-10-31T10:29:32.163Z,97097.84
2022-10-31T10:32:02.536Z,97102.00
2022-10-31T10:34:35.314Z,97096.03
2022-10-31T10:37:05.868Z,97133.06
2022-10-31T10:39:46.484Z,97088.00
2022-10-31T10:42:33.848Z,97096.88
2022-10-31T10:45:24.941Z,97108.06
2022-10-31T10:48:00.134Z,97126.25
2022-10-31T10:50:35.599Z,97142.22
2022-10-31T10:53:22.077Z,97140.03
2022-10-31T10:56:19.329Z,97148.50
2022-10-31T10:58:46.729Z,97180.28
2022-10-31T11:04:36.156Z,97172.34
2022-10-31T11:07:10.886Z,97175.44
2022-10-31T11:09:38.673Z,97170.94
2022-10-31T11:12:11.587Z,97176.53
2022-10-31T11:14:47.738Z,97194.22
2022-10-31T11:17:36.959Z,97197.50
2022-10-31T11:20:16.270Z,97210.66
2022-10-31T11:22:48.237Z,97195.28
2022-10-31T11:25:20.989Z,97185.00
2022-10-31T11:27:48.623Z,97213.13
2022-10-31T11:30:15.621Z,97201.16
2022-10-31T11:32:49.825Z,97207.56
2022-10-31T11:35:19.576Z,97215.69
2022-10-31T11:37:49.165Z,97226.72
2022-10-31T11:40:19.229Z,97197.75
2022-10-31T11:42:46.991Z,97222.97
2022-10-31T11:45:30.859Z,97217.88
2022-10-31T11:48:00.079Z,97207.66
2022-10-31T11:50:37.644Z,97224.19
2022-10-31T11:53:05.292Z,97196.78
2022-10-31T11:55:38.657Z,97198.53
2022-10-31T11:58:05.989Z,97174.56
2022-10-31T12:00:38.457Z,97147.16
2022-10-31T12:03:33.193Z,97125.41
2022-10-31T12:06:03.404Z,97100.16
2022-10-31T12:08:32.284Z,97080.22
2022-10-31T12:11:17.288Z,97084.19
2022-10-31T12:14:07.959Z,97098.28
2022-10-31T12:16:59.095Z,97114.19
2022-10-31T12:19:50.071Z,97124.00
2022-10-31T12:22:30.666Z,97111.88
2022-10-31T12:25:26.698Z,97073.78
2022-10-31T12:27:56.335Z,97109.72
2022-10-31T12:30:50.236Z,97108.13
2022-10-31T12:33:19.499Z,97098.09
2022-10-31T12:36:16.113Z,97109.28
2022-10-31T12:38:48.761Z,97083.81
2022-10-31T12:41:39.937Z,97099.44
2022-10-31T12:44:15.502Z,97081.44
2022-10-31T12:46:57.559Z,97069.91
2022-10-31T12:49:37.999Z,97078.38
2022-10-31T12:52:11.975Z,97071.50
2022-10-31T12:54:56.061Z,97065.84
2022-10-31T12:57:29.010Z,97091.84
2022-10-31T13:00:17.939Z,97082.66
2022-10-31T13:03:10.268Z,97075.09
2022-10-31T13:05:46.945Z,97077.78
2022-10-31T13:08:18.169Z,97085.66
2022-10-31T13:10:49.564Z,97068.13
2022-10-31T13:13:32.042Z,97118.31
2022-10-31T13:16:12.846Z,97090.78
2022-10-31T13:19:03.284Z,97108.44
2022-10-31T13:21:40.290Z,97101.59
2022-10-31T13:24:14.853Z,97083.03
2022-10-31T13:26:55.251Z,97069.19
2022-10-31T13:29:31.733Z,97067.63
2022-10-31T13:32:07.278Z,97051.91
2022-10-31T13:34:40.021Z,97065.38
2022-10-31T13:37:18.605Z,97108.81
2022-10-31T13:39:59.528Z,97077.63
2022-10-31T13:42:46.453Z,97100.94
2022-10-31T13:45:24.832Z,97055.94
2022-10-31T13:48:24.621Z,97066.69
2022-10-31T13:51:05.492Z,97032.97
2022-10-31T13:53:59.088Z,97052.84
2022-10-31T13:56:28.827Z,97035.22
2022-10-31T13:59:01.029Z,97020.09
2022-10-31T14:01:30.034Z,97039.19
2022-10-31T14:04:13.192Z,97011.34
2022-10-31T14:06:58.596Z,96980.03
2022-10-31T14:09:39.070Z,96992.41
2022-10-31T14:12:10.108Z,96985.38
2022-10-31T14:14:45.571Z,96992.84
2022-10-31T14:17:20.483Z,96989.56
2022-10-31T14:20:11.871Z,96944.63
2022-10-31T14:22:42.785Z,96930.75
2022-10-31T14:25:28.084Z,96962.03
2022-10-31T14:27:55.077Z,96949.53
2022-10-31T14:30:25.369Z,96934.50
2022-10-31T14:33:01.645Z,96935.59
2022-10-31T14:35:48.444Z,96922.53
2022-10-31T14:38:48.747Z,96887.63
2022-10-31T14:41:46.509Z,96885.69
2022-10-31T14:44:54.082Z,96875.94
2022-10-31T14:47:32.624Z,96865.72
2022-10-31T14:50:10.343Z,96882.97
2022-10-31T14:52:38.882Z,96894.94
2022-10-31T14:55:11.224Z,96893.00
2022-10-31T14:57:39.335Z,96866.34
2022-10-31T15:00:09.670Z,96861.78
2022-10-31T15:02:50.570Z,96852.44
2022-10-31T15:05:17.612Z,96868.97
2022-10-31T15:07:53.458Z,96846.47
2022-10-31T15:10:30.800Z,96856.25
2022-10-31T15:12:57.704Z,96867.88
2022-10-31T15:15:26.901Z,96853.16
2022-10-31T15:18:00.590Z,96838.13
2022-10-31T15:20:30.225Z,96824.91
2022-10-31T15:22:58.668Z,96801.59
2022-10-31T15:25:29.399Z,96790.28
2022-10-31T15:27:55.959Z,96793.25
2022-10-31T15:30:25.541Z,96767.25
2022-10-31T15:32:58.265Z,96776.97
2022-10-31T15:35:28.811Z,96766.44
2022-10-31T15:37:57.481Z,96762.19
2022-10-31T15:40:26.793Z,96748.00
2022-10-31T15:42:53.342Z,96718.50
2022-10-31T15:45:24.878Z,96704.31
2022-10-31T15:47:57.806Z,96686.59
2022-10-31T15:50:38.776Z,96659.13
2022-10-31T15:53:07.465Z,96627.25
2022-10-31T15:55:39.443Z,96612.59
2022-10-31T15:58:14.913Z,96592.31
2022-10-31T16:00:41.694Z,96561.50
2022-10-31T16:03:19.967Z,96518.00
2022-10-31T16:05:52.030Z,96486.13
2022-10-31T16:08:33.209Z,96492.03
2022-10-31T16:11:08.893Z,96493.97
2022-10-31T16:13:43.328Z,96490.22
2022-10-31T16:16:34.290Z,96518.06
2022-10-31T16:19:03.128Z,96490.22
2022-10-31T16:21:34.517Z,96456.53
2022-10-31T16:24:19.480Z,96474.28
2022-10-31T16:26:51.877Z,96463.34
2022-10-31T16:29:48.260Z,96464.75
2022-10-31T16:32:36.774Z,96495.00
2022-10-31T16:35:09.274Z,96522.63
2022-10-31T16:37:40.167Z,96528.25
2022-10-31T16:40:07.661Z,96525.66
2022-10-31T16:42:34.300Z,96508.84
2022-10-31T16:45:01.053Z,96502.69
2022-10-31T16:47:30.636Z,96517.66
2022-10-31T16:50:00.948Z,96532.22
2022-10-31T16:52:31.514Z,96524.34
2022-10-31T16:55:01.862Z,96519.44
2022-10-31T16:57:32.133Z,96504.22
2022-10-31T16:59:58.741Z,96485.53
2022-10-31T17:02:25.692Z,96480.34
2022-10-31T17:04:55.790Z,96490.06
2022-10-31T17:07:23.510Z,96481.41
2022-10-31T17:09:50.127Z,96464.09
2022-10-31T17:12:19.940Z,96450.69
2022-10-31T17:14:50.353Z,96443.28
2022-10-31T17:17:16.926Z,96452.56
2022-10-31T17:19:43.740Z,96461.63
2022-10-31T17:22:12.433Z,96450.91
2022-10-31T17:24:39.020Z,96440.06
2022-10-31T17:27:05.588Z,96445.28
2022-10-31T17:29:32.799Z,96426.13
2022-10-31T17:31:59.813Z,96436.19
2022-10-31T17:34:26.375Z,96442.94
2022-10-31T17:36:53.637Z,96457.56
2022-10-31T17:39:20.635Z,96456.13
2022-10-31T17:41:51.756Z,96450.53
2022-10-31T17:44:19.346Z,96437.72
2022-10-31T17:46:47.120Z,96435.38
2022-10-31T17:49:13.887Z,96420.88
2022-10-31T17:51:43.248Z,96406.53
2022-10-31T17:54:10.857Z,96387.50
2022-10-31T17:56:37.459Z,96371.06
2022-10-31T17:59:04.153Z,96357.78
2022-10-31T18:01:30.853Z,96327.53
2022-10-31T18:03:57.650Z,96307.66
2022-10-31T18:06:24.301Z,96322.50
2022-10-31T18:08:51.041Z,96315.03
2022-10-31T18:11:20.800Z,96320.06
2022-10-31T18:13:47.400Z,96333.75
2022-10-31T18:16:16.865Z,96329.91
2022-10-31T18:18:43.501Z,96337.22
2022-10-31T18:21:10.126Z,96358.06
2022-10-31T18:23:36.894Z,96363.22
2022-10-31T18:26:04.063Z,96439.13
2022-10-31T18:28:30.642Z,96359.03
2022-10-31T18:31:00.771Z,96348.19
2022-10-31T18:33:27.879Z,96356.56
2022-10-31T18:35:54.703Z,96358.22
2022-10-31T18:38:21.423Z,96361.69
2022-10-31T18:40:48.070Z,96356.59
2022-10-31T18:43:17.199Z,96349.84
2022-10-31T18:45:49.393Z,96338.47
2022-10-31T18:48:20.536Z,96346.03
2022-10-31T18:50:47.173Z,96302.41
2022-10-31T18:53:13.824Z,96280.13
2022-10-31T18:55:45.407Z,96286.88
2022-10-31T18:58:17.082Z,96285.88
2022-10-31T19:00:43.769Z,96281.84
2022-10-31T19:03:10.444Z,96272.34
2022-10-31T19:05:37.174Z,96280.41
2022-10-31T19:08:04.585Z,96266.44
2022-10-31T19:10:31.345Z,96275.41
2022-10-31T19:12:58.202Z,96273.34
2022-10-31T19:15:26.095Z,96269.88
2022-10-31T19:17:52.756Z,96238.75
2022-10-31T19:20:19.401Z,96222.13
2022-10-31T19:22:46.059Z,96238.41
2022-10-31T19:25:12.724Z,96236.22
2022-10-31T19:27:39.556Z,96245.47
2022-10-31T19:30:07.487Z,96223.69
2022-10-31T19:32:34.321Z,96220.44
2022-10-31T19:35:00.921Z,96231.78
2022-10-31T19:37:27.551Z,96216.56
2022-10-31T19:39:54.259Z,96246.19
2022-10-31T19:42:20.835Z,96240.88
2022-10-31T19:44:47.400Z,96229.22
2022-10-31T19:47:13.941Z,96226.75
2022-10-31T19:49:40.476Z,96253.41
2022-10-31T19:52:07.201Z,96270.28
2022-10-31T19:54:33.856Z,96262.44
2022-10-31T19:57:00.420Z,96260.06
2022-10-31T19:59:27.161Z,96270.88
2022-10-31T20:01:53.812Z,96285.19
2022-10-31T20:04:20.592Z,96280.13
2022-10-31T20:06:47.158Z,96309.19
2022-10-31T20:09:14.380Z,96359.81
2022-10-31T20:11:43.181Z,96373.34
2022-10-31T20:14:12.801Z,96355.53
2022-10-31T20:16:39.921Z,96320.16
2022-10-31T20:19:06.523Z,96349.34
2022-10-31T20:21:36.881Z,96383.50
2022-10-31T20:24:07.476Z,96323.28
2022-10-31T20:26:34.910Z,96347.59
2022-10-31T20:29:03.158Z,96329.09
2022-10-31T20:31:32.908Z,96342.72
2022-10-31T20:33:59.890Z,96320.88
2022-10-31T20:36:28.780Z,96307.31
2022-10-31T20:38:55.633Z,96302.41
2022-10-31T20:41:22.272Z,96295.63
2022-10-31T20:43:49.041Z,96306.03
2022-10-31T20:46:21.836Z,96279.91
2022-10-31T20:48:48.633Z,96267.88
2022-10-31T20:51:18.507Z,96256.19
2022-10-31T20:53:45.701Z,96253.16
2022-10-31T20:56:15.020Z,96245.28
2022-10-31T20:58:42.916Z,96257.25
2022-10-31T21:01:15.599Z,96224.25
2022-10-31T21:03:42.671Z,96282.16
2022-10-31T21:06:09.939Z,96272.50
2022-10-31T21:08:37.267Z,96251.09
2022-10-31T21:11:11.353Z,96247.66
2022-10-31T21:13:40.824Z,96231.78
2022-10-31T21:16:10.767Z,96225.50
2022-10-31T21:18:38.965Z,96233.63
2022-10-31T21:21:14.654Z,96237.00
2022-10-31T21:23:43.154Z,96236.41
2022-10-31T21:26:21.624Z,96208.69
2022-10-31T21:28:49.477Z,96234.38
2022-10-31T21:31:17.791Z,96243.44
2022-10-31T21:33:45.813Z,96296.47
2022-10-31T21:36:12.845Z,96188.28
2022-10-31T21:38:40.225Z,96203.53
2022-10-31T21:41:08.594Z,96205.06
2022-10-31T21:43:36.660Z,96217.66
2022-10-31T21:46:08.485Z,96198.75
2022-10-31T21:48:39.159Z,96192.44
2022-10-31T21:51:06.486Z,96183.94
2022-10-31T21:53:51.589Z,96202.81
2022-10-31T21:56:18.245Z,96265.34
2022-10-31T21:58:44.907Z,96250.88
2022-10-31T22:01:12.019Z,96179.00
2022-10-31T22:03:41.271Z,96202.16
2022-10-31T22:06:11.066Z,96163.09
2022-10-31T22:08:38.071Z,96158.78
2022-10-31T22:11:06.045Z,96136.88
2022-10-31T22:13:34.135Z,96119.75
2022-10-31T22:16:01.979Z,96114.06
2022-10-31T22:18:29.060Z,96110.44
2022-10-31T22:21:02.099Z,96110.03
2022-10-31T22:23:29.112Z,96074.13
2022-10-31T22:25:55.726Z,96111.38
2022-10-31T22:28:22.275Z,96162.81
2022-10-31T22:30:48.929Z,96146.28
2022-10-31T22:33:15.480Z,96118.41
2022-10-31T22:35:42.125Z,96094.84
2022-10-31T22:38:08.656Z,96096.69
2022-10-31T22:40:35.188Z,96175.69
2022-10-31T22:43:02.144Z,96170.94
2022-10-31T22:45:28.902Z,96206.00
2022-10-31T22:47:55.448Z,96147.63
2022-10-31T22:50:22.123Z,96263.25
2022-10-31T22:52:48.820Z,96271.34
2022-10-31T22:55:17.329Z,96248.66
2022-10-31T22:57:43.922Z,96240.72
2022-10-31T23:00:10.944Z,96219.88
2022-10-31T23:02:37.538Z,96214.72
2022-10-31T23:05:04.395Z,96169.91
2022-10-31T23:07:33.069Z,96149.66
2022-10-31T23:09:59.796Z,96127.69
2022-10-31T23:12:45.136Z,96128.84
2022-10-31T23:15:11.815Z,96145.25
2022-10-31T23:17:39.164Z,96096.91
2022-10-31T23:20:07.102Z,96088.75
2022-10-31T23:22:33.678Z,96125.16
2022-10-31T23:25:00.225Z,96180.69
2022-10-31T23:27:27.188Z,96185.78
2022-10-31T23:29:56.004Z,96152.72
2022-10-31T23:32:25.306Z,96163.13
2022-10-31T23:34:54.053Z,96135.28
2022-10-31T23:37:22.846Z,96147.91
2022-10-31T23:39:49.899Z,96155.59
2022-10-31T23:42:17.232Z,96177.16
2022-10-31T23:44:43.816Z,96158.16
2022-10-31T23:47:10.726Z,96164.88
2022-10-31T23:49:37.302Z,96161.06
2022-10-31T23:52:04.891Z,96248.50
2022-10-31T23:54:32.446Z,96170.31
2022-10-31T23:56:59.196Z,96163.59
2022-10-31T23:59:26.589Z,96177.38
